sensor_id;sensor_type;location;lat;lon;timestamp;pressure;altitude;pressure_sealevel;temperature;humidity
42519;BME280;28147;47.520;18.920;2023-11-19T00:01:55;98941.72;;;6.56;53.22
42519;BME280;28147;47.520;18.920;2023-11-19T00:04:21;98957.09;;;6.46;53.63
42519;BME280;28147;47.520;18.920;2023-11-19T00:06:47;98961.66;;;6.59;53.70
42519;BME280;28147;47.520;18.920;2023-11-19T00:09:13;98959.13;;;6.79;53.13
42519;BME280;28147;47.520;18.920;2023-11-19T00:11:38;98955.06;;;6.76;52.66
42519;BME280;28147;47.520;18.920;2023-11-19T00:14:04;98942.72;;;6.97;52.35
42519;BME280;28147;47.520;18.920;2023-11-19T00:16:29;98950.97;;;7.22;51.73
42519;BME280;28147;47.520;18.920;2023-11-19T00:18:57;98947.19;;;6.96;52.29
42519;BME280;28147;47.520;18.920;2023-11-19T00:21:23;98952.38;;;7.11;51.98
42519;BME280;28147;47.520;18.920;2023-11-19T00:23:48;98943.03;;;7.22;52.01
42519;BME280;28147;47.520;18.920;2023-11-19T00:26:13;98952.31;;;7.04;52.19
42519;BME280;28147;47.520;18.920;2023-11-19T00:28:39;98964.09;;;6.95;52.24
42519;BME280;28147;47.520;18.920;2023-11-19T00:31:04;98965.34;;;6.99;52.63
42519;BME280;28147;47.520;18.920;2023-11-19T00:33:30;98976.00;;;7.13;52.08
42519;BME280;28147;47.520;18.920;2023-11-19T00:35:56;98961.88;;;6.99;52.25
42519;BME280;28147;47.520;18.920;2023-11-19T00:38:21;98953.56;;;7.02;52.49
42519;BME280;28147;47.520;18.920;2023-11-19T00:40:47;98952.19;;;6.78;53.07
42519;BME280;28147;47.520;18.920;2023-11-19T00:43:12;98950.47;;;6.57;53.10
42519;BME280;28147;47.520;18.920;2023-11-19T00:45:38;98951.75;;;6.68;53.40
42519;BME280;28147;47.520;18.920;2023-11-19T00:48:04;98951.75;;;6.68;53.57
42519;BME280;28147;47.520;18.920;2023-11-19T00:50:29;98954.34;;;6.96;52.66
42519;BME280;28147;47.520;18.920;2023-11-19T00:52:56;98945.09;;;7.20;52.23
42519;BME280;28147;47.520;18.920;2023-11-19T00:55:21;98933.47;;;7.21;51.90
42519;BME280;28147;47.520;18.920;2023-11-19T00:57:47;98935.88;;;7.16;52.16
42519;BME280;28147;47.520;18.920;2023-11-19T01:00:12;98932.97;;;6.97;52.94
42519;BME280;28147;47.520;18.920;2023-11-19T01:02:45;98936.91;;;7.15;52.34
42519;BME280;28147;47.520;18.920;2023-11-19T01:05:11;98931.25;;;7.31;51.70
42519;BME280;28147;47.520;18.920;2023-11-19T01:07:39;98939.16;;;7.18;51.98
42519;BME280;28147;47.520;18.920;2023-11-19T01:10:05;98949.00;;;6.89;52.99
42519;BME280;28147;47.520;18.920;2023-11-19T01:12:31;98942.16;;;7.08;52.52
42519;BME280;28147;47.520;18.920;2023-11-19T01:14:56;98936.19;;;6.86;52.86
42519;BME280;28147;47.520;18.920;2023-11-19T01:17:23;98939.31;;;7.03;52.45
42519;BME280;28147;47.520;18.920;2023-11-19T01:19:48;98938.97;;;6.78;52.79
42519;BME280;28147;47.520;18.920;2023-11-19T01:22:15;98932.56;;;6.94;51.33
42519;BME280;28147;47.520;18.920;2023-11-19T01:24:40;98939.31;;;7.03;51.48
42519;BME280;28147;47.520;18.920;2023-11-19T01:27:06;98942.03;;;6.75;52.67
42519;BME280;28147;47.520;18.920;2023-11-19T01:29:31;98936.09;;;6.73;52.92
42519;BME280;28147;47.520;18.920;2023-11-19T01:31:57;98937.44;;;6.97;52.25
42519;BME280;28147;47.520;18.920;2023-11-19T01:34:22;98938.66;;;6.94;52.51
42519;BME280;28147;47.520;18.920;2023-11-19T01:36:47;98933.22;;;6.68;52.50
42519;BME280;28147;47.520;18.920;2023-11-19T01:39:14;98932.53;;;6.59;52.80
42519;BME280;28147;47.520;18.920;2023-11-19T01:41:41;98936.53;;;6.76;52.81
42519;BME280;28147;47.520;18.920;2023-11-19T01:44:06;98931.69;;;6.87;52.66
42519;BME280;28147;47.520;18.920;2023-11-19T01:46:32;98935.34;;;6.79;53.10
42519;BME280;28147;47.520;18.920;2023-11-19T01:48:59;98931.44;;;6.81;53.01
42519;BME280;28147;47.520;18.920;2023-11-19T01:51:25;98916.00;;;6.78;52.84
42519;BME280;28147;47.520;18.920;2023-11-19T01:53:50;98915.81;;;6.45;53.76
42519;BME280;28147;47.520;18.920;2023-11-19T01:56:16;98912.41;;;6.99;52.59
42519;BME280;28147;47.520;18.920;2023-11-19T01:58:43;98908.72;;;6.52;53.44
42519;BME280;28147;47.520;18.920;2023-11-19T02:01:10;98901.34;;;6.41;54.04
42519;BME280;28147;47.520;18.920;2023-11-19T02:03:37;98896.84;;;6.42;54.28
42519;BME280;28147;47.520;18.920;2023-11-19T02:06:03;98890.72;;;6.34;54.50
42519;BME280;28147;47.520;18.920;2023-11-19T02:08:29;98889.41;;;6.58;53.76
42519;BME280;28147;47.520;18.920;2023-11-19T02:10:55;98886.44;;;6.33;53.94
42519;BME280;28147;47.520;18.920;2023-11-19T02:13:24;98892.44;;;6.49;53.63
42519;BME280;28147;47.520;18.920;2023-11-19T02:15:50;98886.63;;;6.32;54.17
42519;BME280;28147;47.520;18.920;2023-11-19T02:18:23;98878.13;;;6.37;53.64
42519;BME280;28147;47.520;18.920;2023-11-19T02:20:50;98885.50;;;6.48;53.65
42519;BME280;28147;47.520;18.920;2023-11-19T02:23:16;98869.94;;;6.31;53.81
42519;BME280;28147;47.520;18.920;2023-11-19T02:25:43;98875.06;;;6.33;53.72
42519;BME280;28147;47.520;18.920;2023-11-19T02:28:12;98878.09;;;6.30;53.82
42519;BME280;28147;47.520;18.920;2023-11-19T02:30:38;98878.19;;;6.50;53.46
42519;BME280;28147;47.520;18.920;2023-11-19T02:33:03;98887.19;;;6.55;53.24
42519;BME280;28147;47.520;18.920;2023-11-19T02:35:31;98891.63;;;6.20;54.17
42519;BME280;28147;47.520;18.920;2023-11-19T02:37:58;98868.47;;;5.94;54.66
42519;BME280;28147;47.520;18.920;2023-11-19T02:40:25;98867.94;;;6.33;54.27
42519;BME280;28147;47.520;18.920;2023-11-19T02:42:51;98874.19;;;6.26;53.81
42519;BME280;28147;47.520;18.920;2023-11-19T02:45:17;98869.50;;;6.28;53.97
42519;BME280;28147;47.520;18.920;2023-11-19T02:47:44;98860.81;;;6.34;53.99
42519;BME280;28147;47.520;18.920;2023-11-19T02:50:12;98847.91;;;6.18;53.91
42519;BME280;28147;47.520;18.920;2023-11-19T02:52:44;98841.22;;;6.22;53.90
42519;BME280;28147;47.520;18.920;2023-11-19T02:55:11;98853.53;;;6.43;53.78
42519;BME280;28147;47.520;18.920;2023-11-19T02:57:40;98850.47;;;6.04;54.25
42519;BME280;28147;47.520;18.920;2023-11-19T03:00:25;98848.63;;;6.33;54.28
42519;BME280;28147;47.520;18.920;2023-11-19T03:03:12;98837.03;;;6.34;53.94
42519;BME280;28147;47.520;18.920;2023-11-19T03:05:48;98845.47;;;6.57;53.94
42519;BME280;28147;47.520;18.920;2023-11-19T03:08:16;98833.28;;;6.22;54.39
42519;BME280;28147;47.520;18.920;2023-11-19T03:10:41;98831.34;;;6.37;54.13
42519;BME280;28147;47.520;18.920;2023-11-19T03:13:11;98839.97;;;6.52;53.54
42519;BME280;28147;47.520;18.920;2023-11-19T03:15:38;98821.31;;;6.74;53.43
42519;BME280;28147;47.520;18.920;2023-11-19T03:18:03;98820.06;;;6.70;53.17
42519;BME280;28147;47.520;18.920;2023-11-19T03:20:28;98822.97;;;6.75;52.79
42519;BME280;28147;47.520;18.920;2023-11-19T03:22:55;98826.50;;;6.47;53.61
42519;BME280;28147;47.520;18.920;2023-11-19T03:25:24;98816.03;;;6.32;54.19
42519;BME280;28147;47.520;18.920;2023-11-19T03:27:50;98824.22;;;6.38;54.15
42519;BME280;28147;47.520;18.920;2023-11-19T03:30:16;98819.19;;;6.49;53.92
42519;BME280;28147;47.520;18.920;2023-11-19T03:32:42;98819.97;;;6.37;54.13
42519;BME280;28147;47.520;18.920;2023-11-19T03:35:08;98825.59;;;6.27;54.38
42519;BME280;28147;47.520;18.920;2023-11-19T03:37:34;98804.78;;;6.17;54.72
42519;BME280;28147;47.520;18.920;2023-11-19T03:39:59;98803.22;;;5.67;55.82
42519;BME280;28147;47.520;18.920;2023-11-19T03:42:26;98813.91;;;5.86;55.36
42519;BME280;28147;47.520;18.920;2023-11-19T03:44:52;98801.81;;;5.71;55.53
42519;BME280;28147;47.520;18.920;2023-11-19T03:47:18;98797.50;;;6.67;53.32
42519;BME280;28147;47.520;18.920;2023-11-19T03:49:48;98788.63;;;7.08;51.46
42519;BME280;28147;47.520;18.920;2023-11-19T03:52:14;98785.97;;;6.40;53.09
42519;BME280;28147;47.520;18.920;2023-11-19T03:54:39;98783.09;;;5.94;54.34
42519;BME280;28147;47.520;18.920;2023-11-19T03:57:04;98763.16;;;5.91;54.60
42519;BME280;28147;47.520;18.920;2023-11-19T03:59:30;98777.13;;;5.85;54.99
42519;BME280;28147;47.520;18.920;2023-11-19T04:01:55;98788.34;;;5.37;56.05
42519;BME280;28147;47.520;18.920;2023-11-19T04:04:22;98773.91;;;5.33;56.49
42519;BME280;28147;47.520;18.920;2023-11-19T04:06:48;98766.59;;;5.57;56.11
42519;BME280;28147;47.520;18.920;2023-11-19T04:09:13;98762.38;;;5.41;56.59
42519;BME280;28147;47.520;18.920;2023-11-19T04:11:38;98748.03;;;5.78;55.59
42519;BME280;28147;47.520;18.920;2023-11-19T04:14:05;98754.00;;;5.59;55.77
42519;BME280;28147;47.520;18.920;2023-11-19T04:16:30;98754.44;;;5.63;55.39
42519;BME280;28147;47.520;18.920;2023-11-19T04:18:56;98761.50;;;5.34;56.04
42519;BME280;28147;47.520;18.920;2023-11-19T04:21:21;98760.69;;;5.90;54.01
42519;BME280;28147;47.520;18.920;2023-11-19T04:23:49;98761.41;;;5.42;55.86
42519;BME280;28147;47.520;18.920;2023-11-19T04:26:14;98759.28;;;5.59;55.70
42519;BME280;28147;47.520;18.920;2023-11-19T04:28:42;98756.00;;;5.85;55.07
42519;BME280;28147;47.520;18.920;2023-11-19T04:31:07;98743.31;;;6.02;54.05
42519;BME280;28147;47.520;18.920;2023-11-19T04:33:34;98746.72;;;5.68;54.85
42519;BME280;28147;47.520;18.920;2023-11-19T04:35:59;98741.47;;;5.96;54.27
42519;BME280;28147;47.520;18.920;2023-11-19T04:38:25;98735.25;;;6.17;53.43
42519;BME280;28147;47.520;18.920;2023-11-19T04:40:52;98775.50;;;5.84;54.46
42519;BME280;28147;47.520;18.920;2023-11-19T04:43:17;98786.97;;;5.98;54.38
42519;BME280;28147;47.520;18.920;2023-11-19T04:45:43;98775.28;;;6.14;53.71
42519;BME280;28147;47.520;18.920;2023-11-19T04:48:09;98784.88;;;6.15;53.86
42519;BME280;28147;47.520;18.920;2023-11-19T04:50:34;98786.44;;;6.02;53.89
42519;BME280;28147;47.520;18.920;2023-11-19T04:52:59;98777.97;;;6.20;53.83
42519;BME280;28147;47.520;18.920;2023-11-19T04:55:25;98774.31;;;6.21;53.58
42519;BME280;28147;47.520;18.920;2023-11-19T04:57:50;98784.34;;;6.39;52.56
42519;BME280;28147;47.520;18.920;2023-11-19T05:00:19;98780.53;;;5.79;54.28
42519;BME280;28147;47.520;18.920;2023-11-19T05:02:44;98768.06;;;5.17;56.34
42519;BME280;28147;47.520;18.920;2023-11-19T05:05:11;98771.38;;;5.75;54.48
42519;BME280;28147;47.520;18.920;2023-11-19T05:07:36;98762.63;;;5.74;54.70
42519;BME280;28147;47.520;18.920;2023-11-19T05:10:03;98736.25;;;5.81;55.05
42519;BME280;28147;47.520;18.920;2023-11-19T05:12:31;98765.97;;;6.24;54.48
42519;BME280;28147;47.520;18.920;2023-11-19T05:14:56;98774.31;;;6.76;52.58
42519;BME280;28147;47.520;18.920;2023-11-19T05:17:23;98784.13;;;6.34;53.17
42519;BME280;28147;47.520;18.920;2023-11-19T05:19:49;98785.19;;;6.05;54.38
42519;BME280;28147;47.520;18.920;2023-11-19T05:22:14;98783.88;;;5.88;55.01
42519;BME280;28147;47.520;18.920;2023-11-19T05:24:40;98756.69;;;5.94;54.74
42519;BME280;28147;47.520;18.920;2023-11-19T05:27:06;98755.91;;;6.41;54.01
42519;BME280;28147;47.520;18.920;2023-11-19T05:29:33;98761.47;;;6.60;53.67
42519;BME280;28147;47.520;18.920;2023-11-19T05:31:58;98756.16;;;6.66;53.14
42519;BME280;28147;47.520;18.920;2023-11-19T05:34:24;98764.69;;;6.48;53.96
42519;BME280;28147;47.520;18.920;2023-11-19T05:36:50;98759.56;;;6.47;54.29
42519;BME280;28147;47.520;18.920;2023-11-19T05:39:16;98773.66;;;6.61;53.95
42519;BME280;28147;47.520;18.920;2023-11-19T05:41:42;98764.22;;;6.38;54.68
42519;BME280;28147;47.520;18.920;2023-11-19T05:44:08;98752.22;;;6.42;54.09
42519;BME280;28147;47.520;18.920;2023-11-19T05:46:33;98755.97;;;6.61;54.15
42519;BME280;28147;47.520;18.920;2023-11-19T05:48:59;98751.34;;;6.83;53.00
42519;BME280;28147;47.520;18.920;2023-11-19T05:51:25;98769.25;;;6.81;52.75
42519;BME280;28147;47.520;18.920;2023-11-19T05:53:50;98769.25;;;6.81;52.97
42519;BME280;28147;47.520;18.920;2023-11-19T05:56:16;98770.19;;;6.53;53.22
42519;BME280;28147;47.520;18.920;2023-11-19T05:58:46;98765.25;;;6.44;54.12
42519;BME280;28147;47.520;18.920;2023-11-19T06:01:14;98740.22;;;6.40;54.07
42519;BME280;28147;47.520;18.920;2023-11-19T06:03:39;98748.38;;;6.45;54.18
42519;BME280;28147;47.520;18.920;2023-11-19T06:06:05;98762.13;;;6.88;53.45
42519;BME280;28147;47.520;18.920;2023-11-19T06:08:31;98753.78;;;6.91;53.15
42519;BME280;28147;47.520;18.920;2023-11-19T06:10:56;98761.38;;;6.40;54.02
42519;BME280;28147;47.520;18.920;2023-11-19T06:13:22;98748.38;;;6.45;54.03
42519;BME280;28147;47.520;18.920;2023-11-19T06:15:47;98738.50;;;6.67;53.84
42519;BME280;28147;47.520;18.920;2023-11-19T06:18:13;98735.25;;;6.85;53.89
42519;BME280;28147;47.520;18.920;2023-11-19T06:20:40;98726.09;;;6.80;54.03
42519;BME280;28147;47.520;18.920;2023-11-19T06:23:05;98731.81;;;7.04;53.57
42519;BME280;28147;47.520;18.920;2023-11-19T06:25:31;98729.78;;;6.99;53.36
42519;BME280;28147;47.520;18.920;2023-11-19T06:27:58;98729.00;;;6.31;55.00
42519;BME280;28147;47.520;18.920;2023-11-19T06:30:24;98725.44;;;6.65;54.66
42519;BME280;28147;47.520;18.920;2023-11-19T06:32:49;98722.03;;;6.85;54.45
42519;BME280;28147;47.520;18.920;2023-11-19T06:35:14;98718.75;;;6.69;54.95
42519;BME280;28147;47.520;18.920;2023-11-19T06:37:41;98706.59;;;7.21;53.76
42519;BME280;28147;47.520;18.920;2023-11-19T06:40:07;98715.16;;;7.17;53.67
42519;BME280;28147;47.520;18.920;2023-11-19T06:42:34;98717.53;;;7.65;52.61
42519;BME280;28147;47.520;18.920;2023-11-19T06:45:00;98724.28;;;7.34;53.51
42519;BME280;28147;47.520;18.920;2023-11-19T06:47:26;98715.34;;;7.22;53.58
42519;BME280;28147;47.520;18.920;2023-11-19T06:49:52;98715.94;;;7.30;53.08
42519;BME280;28147;47.520;18.920;2023-11-19T06:52:18;98705.56;;;7.29;53.17
42519;BME280;28147;47.520;18.920;2023-11-19T06:54:44;98723.88;;;7.11;54.80
42519;BME280;28147;47.520;18.920;2023-11-19T06:57:11;98707.75;;;6.72;55.36
42519;BME280;28147;47.520;18.920;2023-11-19T06:59:37;98709.13;;;6.55;56.30
42519;BME280;28147;47.520;18.920;2023-11-19T07:02:02;98704.88;;;6.54;56.63
42519;BME280;28147;47.520;18.920;2023-11-19T07:04:28;98704.94;;;6.80;55.90
42519;BME280;28147;47.520;18.920;2023-11-19T07:06:53;98716.41;;;6.40;56.86
42519;BME280;28147;47.520;18.920;2023-11-19T07:09:19;98716.66;;;6.45;57.46
42519;BME280;28147;47.520;18.920;2023-11-19T07:11:44;98713.91;;;6.18;57.46
42519;BME280;28147;47.520;18.920;2023-11-19T07:14:11;98714.75;;;6.25;57.36
42519;BME280;28147;47.520;18.920;2023-11-19T07:16:37;98701.63;;;6.52;56.79
42519;BME280;28147;47.520;18.920;2023-11-19T07:19:04;98714.97;;;6.30;57.19
42519;BME280;28147;47.520;18.920;2023-11-19T07:21:30;98713.72;;;7.01;55.69
42519;BME280;28147;47.520;18.920;2023-11-19T07:23:56;98711.81;;;7.68;53.33
42519;BME280;28147;47.520;18.920;2023-11-19T07:26:22;98714.47;;;7.68;52.59
42519;BME280;28147;47.520;18.920;2023-11-19T07:28:48;98721.38;;;7.89;51.80
42519;BME280;28147;47.520;18.920;2023-11-19T07:31:14;98709.63;;;7.25;54.87
42519;BME280;28147;47.520;18.920;2023-11-19T07:33:40;98713.28;;;7.30;52.83
42519;BME280;28147;47.520;18.920;2023-11-19T07:36:11;98716.53;;;7.52;52.54
42519;BME280;28147;47.520;18.920;2023-11-19T07:38:37;98712.16;;;7.91;51.65
42519;BME280;28147;47.520;18.920;2023-11-19T07:41:03;98708.72;;;7.91;51.73
42519;BME280;28147;47.520;18.920;2023-11-19T07:43:30;98720.03;;;8.18;51.15
42519;BME280;28147;47.520;18.920;2023-11-19T07:45:55;98725.59;;;8.03;51.04
42519;BME280;28147;47.520;18.920;2023-11-19T07:48:21;98719.38;;;8.29;50.73
42519;BME280;28147;47.520;18.920;2023-11-19T07:50:52;98727.16;;;8.24;50.62
42519;BME280;28147;47.520;18.920;2023-11-19T07:53:19;98727.91;;;8.44;50.30
42519;BME280;28147;47.520;18.920;2023-11-19T07:55:45;98717.13;;;8.33;49.95
42519;BME280;28147;47.520;18.920;2023-11-19T07:58:11;98709.53;;;7.91;51.40
42519;BME280;28147;47.520;18.920;2023-11-19T08:00:37;98707.16;;;7.56;52.15
42519;BME280;28147;47.520;18.920;2023-11-19T08:03:03;98710.84;;;7.49;52.40
42519;BME280;28147;47.520;18.920;2023-11-19T08:05:31;98710.03;;;7.42;53.14
42519;BME280;28147;47.520;18.920;2023-11-19T08:07:58;98689.59;;;7.75;52.25
42519;BME280;28147;47.520;18.920;2023-11-19T08:10:24;98687.56;;;7.77;52.67
42519;BME280;28147;47.520;18.920;2023-11-19T08:12:49;98662.53;;;7.53;52.34
42519;BME280;28147;47.520;18.920;2023-11-19T08:15:14;98672.19;;;7.99;52.15
42519;BME280;28147;47.520;18.920;2023-11-19T08:17:41;98659.94;;;7.98;52.68
42519;BME280;28147;47.520;18.920;2023-11-19T08:20:07;98638.41;;;7.88;51.88
42519;BME280;28147;47.520;18.920;2023-11-19T08:22:36;98636.25;;;7.59;53.12
42519;BME280;28147;47.520;18.920;2023-11-19T08:25:03;98626.78;;;6.85;55.44
42519;BME280;28147;47.520;18.920;2023-11-19T08:27:29;98643.44;;;7.18;54.69
42519;BME280;28147;47.520;18.920;2023-11-19T08:29:54;98670.84;;;7.77;53.57
42519;BME280;28147;47.520;18.920;2023-11-19T08:32:24;98688.59;;;8.21;52.30
42519;BME280;28147;47.520;18.920;2023-11-19T08:34:49;98671.75;;;8.02;52.52
42519;BME280;28147;47.520;18.920;2023-11-19T08:37:15;98663.91;;;7.76;53.16
42519;BME280;28147;47.520;18.920;2023-11-19T08:39:43;98656.72;;;7.96;52.05
42519;BME280;28147;47.520;18.920;2023-11-19T08:42:08;98667.19;;;7.71;52.66
42519;BME280;28147;47.520;18.920;2023-11-19T08:44:34;98643.16;;;7.66;52.63
42519;BME280;28147;47.520;18.920;2023-11-19T08:46:59;98620.66;;;7.24;54.01
42519;BME280;28147;47.520;18.920;2023-11-19T08:49:25;98637.75;;;7.21;54.27
42519;BME280;28147;47.520;18.920;2023-11-19T08:51:51;98677.88;;;8.03;52.85
42519;BME280;28147;47.520;18.920;2023-11-19T08:54:16;98650.47;;;7.77;53.36
42519;BME280;28147;47.520;18.920;2023-11-19T08:56:41;98630.84;;;7.07;54.69
42519;BME280;28147;47.520;18.920;2023-11-19T08:59:07;98651.53;;;7.63;53.76
42519;BME280;28147;47.520;18.920;2023-11-19T09:01:32;98662.59;;;6.67;55.69
42519;BME280;28147;47.520;18.920;2023-11-19T09:03:57;98664.78;;;7.56;53.86
42519;BME280;28147;47.520;18.920;2023-11-19T09:06:23;98669.19;;;7.83;53.13
42519;BME280;28147;47.520;18.920;2023-11-19T09:08:48;98657.63;;;7.64;52.46
42519;BME280;28147;47.520;18.920;2023-11-19T09:11:14;98662.56;;;7.40;53.25
42519;BME280;28147;47.520;18.920;2023-11-19T09:13:39;98671.38;;;6.94;54.46
42519;BME280;28147;47.520;18.920;2023-11-19T09:16:05;98661.34;;;7.29;54.65
42519;BME280;28147;47.520;18.920;2023-11-19T09:18:31;98662.41;;;7.02;54.72
42519;BME280;28147;47.520;18.920;2023-11-19T09:20:57;98676.22;;;7.37;54.57
42519;BME280;28147;47.520;18.920;2023-11-19T09:23:22;98671.09;;;7.42;54.60
42519;BME280;28147;47.520;18.920;2023-11-19T09:25:49;98670.47;;;7.67;53.61
42519;BME280;28147;47.520;18.920;2023-11-19T09:28:15;98667.06;;;7.33;54.00
42519;BME280;28147;47.520;18.920;2023-11-19T09:30:40;98671.38;;;6.94;54.96
42519;BME280;28147;47.520;18.920;2023-11-19T09:33:05;98673.97;;;6.68;55.77
42519;BME280;28147;47.520;18.920;2023-11-19T09:35:31;98652.84;;;6.74;55.95
42519;BME280;28147;47.520;18.920;2023-11-19T09:37:56;98641.78;;;7.37;57.00
42519;BME280;28147;47.520;18.920;2023-11-19T09:40:22;98633.22;;;7.42;54.59
42519;BME280;28147;47.520;18.920;2023-11-19T09:42:47;98630.16;;;7.58;54.17
42519;BME280;28147;47.520;18.920;2023-11-19T09:45:15;98637.13;;;7.26;54.58
42519;BME280;28147;47.520;18.920;2023-11-19T09:47:45;98631.59;;;7.41;53.89
42519;BME280;28147;47.520;18.920;2023-11-19T09:50:18;98625.00;;;7.70;53.51
42519;BME280;28147;47.520;18.920;2023-11-19T09:52:44;98629.13;;;7.52;54.25
42519;BME280;28147;47.520;18.920;2023-11-19T09:55:10;98625.50;;;7.40;54.53
42519;BME280;28147;47.520;18.920;2023-11-19T09:57:38;98621.00;;;7.34;54.63
42519;BME280;28147;47.520;18.920;2023-11-19T10:00:04;98611.84;;;7.37;55.30
42519;BME280;28147;47.520;18.920;2023-11-19T10:02:34;98619.03;;;6.96;56.13
42519;BME280;28147;47.520;18.920;2023-11-19T10:05:06;98615.56;;;6.49;56.51
42519;BME280;28147;47.520;18.920;2023-11-19T10:07:33;98603.91;;;7.30;55.64
42519;BME280;28147;47.520;18.920;2023-11-19T10:10:02;98588.47;;;7.14;56.01
42519;BME280;28147;47.520;18.920;2023-11-19T10:12:29;98583.81;;;6.89;55.96
42519;BME280;28147;47.520;18.920;2023-11-19T10:14:59;98594.56;;;7.27;55.07
42519;BME280;28147;47.520;18.920;2023-11-19T10:17:28;98584.78;;;7.28;55.56
42519;BME280;28147;47.520;18.920;2023-11-19T10:19:55;98571.72;;;7.40;55.00
42519;BME280;28147;47.520;18.920;2023-11-19T10:22:22;98573.44;;;6.81;56.51
42519;BME280;28147;47.520;18.920;2023-11-19T10:24:48;98571.91;;;7.38;55.38
42519;BME280;28147;47.520;18.920;2023-11-19T10:27:13;98570.75;;;7.14;55.78
42519;BME280;28147;47.520;18.920;2023-11-19T10:29:40;98574.78;;;7.88;54.59
42519;BME280;28147;47.520;18.920;2023-11-19T10:32:05;98574.25;;;7.01;55.99
42519;BME280;28147;47.520;18.920;2023-11-19T10:34:31;98575.47;;;7.70;54.62
42519;BME280;28147;47.520;18.920;2023-11-19T10:36:56;98591.38;;;8.09;53.46
42519;BME280;28147;47.520;18.920;2023-11-19T10:39:22;98573.09;;;8.39;52.26
42519;BME280;28147;47.520;18.920;2023-11-19T10:41:49;98567.72;;;7.69;53.78
42519;BME280;28147;47.520;18.920;2023-11-19T10:44:31;98566.34;;;7.53;54.35
42519;BME280;28147;47.520;18.920;2023-11-19T10:46:59;98569.31;;;7.12;56.19
42519;BME280;28147;47.520;18.920;2023-11-19T10:49:24;98569.25;;;7.45;54.58
42519;BME280;28147;47.520;18.920;2023-11-19T10:51:50;98555.44;;;7.36;55.30
42519;BME280;28147;47.520;18.920;2023-11-19T10:54:19;98558.88;;;7.43;54.29
42519;BME280;28147;47.520;18.920;2023-11-19T10:56:49;98547.53;;;7.74;54.16
42519;BME280;28147;47.520;18.920;2023-11-19T10:59:20;98550.81;;;8.08;53.47
42519;BME280;28147;47.520;18.920;2023-11-19T11:01:48;98532.78;;;7.92;53.01
42519;BME280;28147;47.520;18.920;2023-11-19T11:04:22;98520.53;;;7.91;53.44
42519;BME280;28147;47.520;18.920;2023-11-19T11:06:48;98530.00;;;7.28;53.89
42519;BME280;28147;47.520;18.920;2023-11-19T11:09:14;98516.03;;;6.95;55.29
42519;BME280;28147;47.520;18.920;2023-11-19T11:11:41;98505.03;;;6.91;55.77
42519;BME280;28147;47.520;18.920;2023-11-19T11:14:12;98503.25;;;7.43;54.70
42519;BME280;28147;47.520;18.920;2023-11-19T11:16:42;98502.72;;;8.04;52.67
42519;BME280;28147;47.520;18.920;2023-11-19T11:19:07;98502.63;;;7.86;53.46
42519;BME280;28147;47.520;18.920;2023-11-19T11:21:36;98503.13;;;7.70;53.68
42519;BME280;28147;47.520;18.920;2023-11-19T11:32:54;98513.63;;;7.83;53.50
42519;BME280;28147;47.520;18.920;2023-11-19T11:35:49;98511.59;;;8.17;53.10
42519;BME280;28147;47.520;18.920;2023-11-19T11:38:21;98504.22;;;7.87;54.27
42519;BME280;28147;47.520;18.920;2023-11-19T11:43:48;98486.44;;;8.26;54.29
42519;BME280;28147;47.520;18.920;2023-11-19T11:49:01;98476.75;;;6.85;55.21
42519;BME280;28147;47.520;18.920;2023-11-19T11:54:08;98472.38;;;7.24;54.79
42519;BME280;28147;47.520;18.920;2023-11-19T11:56:37;98468.16;;;7.03;54.82
42519;BME280;28147;47.520;18.920;2023-11-19T11:59:19;98473.34;;;6.58;56.77
42519;BME280;28147;47.520;18.920;2023-11-19T12:02:00;98456.50;;;6.19;57.22
42519;BME280;28147;47.520;18.920;2023-11-19T12:04:28;98463.59;;;6.58;56.78
42519;BME280;28147;47.520;18.920;2023-11-19T12:07:08;98460.13;;;6.65;57.08
42519;BME280;28147;47.520;18.920;2023-11-19T12:09:36;98435.25;;;7.30;55.68
42519;BME280;28147;47.520;18.920;2023-11-19T12:19:59;98433.06;;;8.41;55.61
42519;BME280;28147;47.520;18.920;2023-11-19T12:22:25;98427.75;;;6.82;56.85
42519;BME280;28147;47.520;18.920;2023-11-19T12:24:52;98422.28;;;7.22;57.26
42519;BME280;28147;47.520;18.920;2023-11-19T12:27:19;98415.06;;;6.98;57.23
42519;BME280;28147;47.520;18.920;2023-11-19T12:29:47;98411.78;;;7.02;57.37
42519;BME280;28147;47.520;18.920;2023-11-19T12:32:12;98397.34;;;7.37;56.70
42519;BME280;28147;47.520;18.920;2023-11-19T12:34:38;98393.06;;;7.67;56.10
42519;BME280;28147;47.520;18.920;2023-11-19T12:37:04;98397.09;;;7.06;58.01
42519;BME280;28147;47.520;18.920;2023-11-19T12:39:30;98390.22;;;7.94;56.40
42519;BME280;28147;47.520;18.920;2023-11-19T12:41:56;98395.78;;;9.39;59.04
42519;BME280;28147;47.520;18.920;2023-11-19T12:44:24;98389.19;;;8.82;54.48
42519;BME280;28147;47.520;18.920;2023-11-19T12:49:26;98380.22;;;7.96;55.36
42519;BME280;28147;47.520;18.920;2023-11-19T12:51:51;98368.41;;;7.03;58.38
42519;BME280;28147;47.520;18.920;2023-11-19T12:54:17;98365.59;;;7.30;57.23
42519;BME280;28147;47.520;18.920;2023-11-19T12:56:53;98364.03;;;7.22;58.36
42519;BME280;28147;47.520;18.920;2023-11-19T12:59:18;98372.34;;;7.57;56.99
42519;BME280;28147;47.520;18.920;2023-11-19T13:01:57;98369.72;;;7.83;57.10
42519;BME280;28147;47.520;18.920;2023-11-19T13:04:22;98375.50;;;8.23;55.94
42519;BME280;28147;47.520;18.920;2023-11-19T13:06:49;98394.78;;;8.12;55.74
42519;BME280;28147;47.520;18.920;2023-11-19T13:09:26;98388.16;;;8.21;55.49
42519;BME280;28147;47.520;18.920;2023-11-19T13:11:52;98386.72;;;8.00;56.50
42519;BME280;28147;47.520;18.920;2023-11-19T13:14:18;98371.94;;;7.86;56.88
42519;BME280;28147;47.520;18.920;2023-11-19T13:16:44;98359.03;;;7.71;57.50
42519;BME280;28147;47.520;18.920;2023-11-19T13:19:12;98367.16;;;7.44;58.56
42519;BME280;28147;47.520;18.920;2023-11-19T13:21:37;98357.47;;;7.88;57.80
42519;BME280;28147;47.520;18.920;2023-11-19T13:24:08;98359.59;;;7.98;57.86
42519;BME280;28147;47.520;18.920;2023-11-19T13:26:33;98348.56;;;7.76;58.06